Time;durP1;ratioP1;P1;durP2;ratioP2;P2;SDS_P1;SDS_P2;PMS_P1;PMS_P2;Temp;Humidity;BMP_temperature;BMP_pressure;BME280_temperature;BME280_humidity;BME280_pressure;Samples;Min_cycle;Max_cycle;Signal;HPM_P1;HPM_P2
2021/09/13 00:01:10;;;;;;;8.20;7.40;;;13.60;99.90;;;;;;5068942;28;20201;-76
2021/09/13 00:03:36;;;;;;;10.50;7.80;;;13.40;99.90;;;;;;5051198;28;20204;-76
2021/09/13 00:06:01;;;;;;;9.90;7.68;;;13.40;99.90;;;;;;5071225;28;20185;-77
2021/09/13 00:08:27;;;;;;;8.27;7.20;;;13.40;99.90;;;;;;5064105;28;20178;-77
2021/09/13 00:10:53;;;;;;;7.95;7.15;;;13.30;99.90;;;;;;5063508;28;20198;-77
2021/09/13 00:13:19;;;;;;;8.50;7.50;;;13.30;99.90;;;;;;5064029;28;20252;-76
2021/09/13 00:15:44;;;;;;;8.65;7.88;;;13.20;99.90;;;;;;5064116;28;20189;-76
2021/09/13 00:18:10;;;;;;;8.88;7.97;;;13.10;99.90;;;;;;5063689;28;20185;-76
2021/09/13 00:20:36;;;;;;;9.57;7.60;;;13.10;99.90;;;;;;5063363;28;20295;-76
2021/09/13 00:23:02;;;;;;;7.72;7.03;;;13.30;99.90;;;;;;5063818;28;20195;-77
2021/09/13 00:25:27;;;;;;;10.38;8.13;;;13.30;99.90;;;;;;5063795;28;20181;-76
2021/09/13 00:27:54;;;;;;;8.02;7.32;;;13.30;99.90;;;;;;5064214;28;20186;-76
2021/09/13 00:30:20;;;;;;;8.95;7.93;;;13.20;99.90;;;;;;5052172;28;20205;-77
2021/09/13 00:32:45;;;;;;;8.00;7.25;;;13.10;99.90;;;;;;5063228;28;20182;-76
2021/09/13 00:35:11;;;;;;;8.95;8.05;;;13.20;99.90;;;;;;5063678;28;20236;-76
2021/09/13 00:37:37;;;;;;;8.20;7.47;;;13.10;99.90;;;;;;5063922;28;20684;-77
2021/09/13 00:40:03;;;;;;;8.70;7.80;;;13.10;99.90;;;;;;5063269;28;20321;-77
2021/09/13 00:42:31;;;;;;;9.05;7.60;;;13.00;99.90;;;;;;5062958;28;20213;-77
2021/09/13 00:44:58;;;;;;;8.07;7.38;;;13.10;99.90;;;;;;5050557;28;20177;-78
2021/09/13 00:47:23;;;;;;;9.00;8.20;;;13.20;99.90;;;;;;5055996;28;20527;-76
2021/09/13 00:49:49;;;;;;;8.02;7.22;;;13.00;99.90;;;;;;5065387;28;20246;-76
2021/09/13 00:52:14;;;;;;;8.57;7.55;;;13.00;99.90;;;;;;5066858;28;20228;-76
2021/09/13 00:54:40;;;;;;;8.45;7.65;;;13.00;99.90;;;;;;5066938;28;20185;-75
2021/09/13 00:57:07;;;;;;;9.32;8.43;;;12.90;99.90;;;;;;5067375;28;20185;-77
2021/09/13 00:59:32;;;;;;;8.70;7.90;;;13.00;99.90;;;;;;5066780;28;20582;-78
2021/09/13 01:01:58;;;;;;;8.57;7.82;;;12.90;99.90;;;;;;5066319;28;20223;-78
2021/09/13 01:04:24;;;;;;;8.40;7.53;;;13.00;99.90;;;;;;5066994;28;20177;-76
2021/09/13 01:06:50;;;;;;;7.97;7.18;;;13.00;99.90;;;;;;5057709;28;20189;-76
2021/09/13 01:09:16;;;;;;;9.88;7.70;;;12.90;99.90;;;;;;5067281;28;20192;-77
2021/09/13 01:11:43;;;;;;;8.80;8.00;;;12.80;99.90;;;;;;5065861;28;20289;-76
2021/09/13 01:14:09;;;;;;;8.15;7.50;;;12.80;99.90;;;;;;5067048;28;20181;-77
2021/09/13 01:16:34;;;;;;;8.63;7.82;;;12.70;99.90;;;;;;5072575;28;20540;-76
2021/09/13 01:19:00;;;;;;;8.35;7.55;;;12.70;99.90;;;;;;5067133;28;20208;-76
2021/09/13 01:21:27;;;;;;;8.18;7.38;;;12.70;99.90;;;;;;5070857;28;20336;-77
2021/09/13 01:23:53;;;;;;;8.40;7.60;;;12.60;99.90;;;;;;5067228;28;20184;-77
2021/09/13 01:26:19;;;;;;;8.73;7.93;;;12.60;99.90;;;;;;5066822;28;20181;-75
2021/09/13 01:28:45;;;;;;;8.27;7.53;;;12.50;99.90;;;;;;5066414;28;20215;-77
2021/09/13 01:31:11;;;;;;;8.57;7.78;;;12.60;99.90;;;;;;5065863;28;20205;-75
2021/09/13 01:33:37;;;;;;;9.15;8.25;;;12.60;99.90;;;;;;5066615;28;20299;-76
2021/09/13 01:36:03;;;;;;;8.27;7.47;;;12.50;99.90;;;;;;5066701;28;20269;-76
2021/09/13 01:38:31;;;;;;;8.75;7.85;;;12.50;99.90;;;;;;5055987;28;20189;-76
2021/09/13 01:40:57;;;;;;;9.00;8.20;;;12.40;99.90;;;;;;5065519;28;20217;-78
2021/09/13 01:43:23;;;;;;;8.75;7.88;;;12.30;99.90;;;;;;5066391;28;20185;-77
2021/09/13 01:45:49;;;;;;;9.45;8.40;;;12.20;99.90;;;;;;5056235;28;20181;-78
2021/09/13 01:48:15;;;;;;;9.10;8.20;;;12.20;99.90;;;;;;5066155;28;20262;-77
2021/09/13 01:50:40;;;;;;;9.18;8.30;;;12.30;99.90;;;;;;5065139;28;20205;-78
2021/09/13 01:53:06;;;;;;;9.10;8.23;;;12.30;99.90;;;;;;5066216;28;20249;-75
2021/09/13 01:55:32;;;;;;;9.07;8.20;;;12.30;99.90;;;;;;5066187;28;20193;-75
2021/09/13 01:57:58;;;;;;;9.02;8.02;;;12.40;99.90;;;;;;5059507;28;20224;-74
2021/09/13 02:00:24;;;;;;;9.38;8.38;;;12.50;99.90;;;;;;5065339;28;20221;-76
2021/09/13 02:02:49;;;;;;;9.55;8.48;;;12.60;99.90;;;;;;5064993;28;20208;-78
2021/09/13 02:05:15;;;;;;;9.02;7.43;;;12.60;99.90;;;;;;5066052;28;20182;-76
2021/09/13 02:07:40;;;;;;;9.10;7.72;;;12.60;99.90;;;;;;5065803;28;20180;-77
2021/09/13 02:10:07;;;;;;;8.68;7.88;;;12.80;99.90;;;;;;5065740;28;20193;-77
2021/09/13 02:12:33;;;;;;;9.10;8.27;;;12.80;99.90;;;;;;5065201;28;20204;-78
2021/09/13 02:14:58;;;;;;;8.30;7.60;;;12.90;99.90;;;;;;5065751;28;20184;-77
2021/09/13 02:17:24;;;;;;;8.35;7.60;;;12.90;99.90;;;;;;5065711;28;20267;-75
2021/09/13 02:19:50;;;;;;;8.73;7.93;;;13.00;99.90;;;;;;5065433;28;20256;-75
2021/09/13 02:22:16;;;;;;;10.27;8.13;;;12.90;99.90;;;;;;5064959;28;20181;-78
2021/09/13 02:24:42;;;;;;;8.73;7.90;;;12.80;99.90;;;;;;5065439;28;20197;-76
2021/09/13 02:27:08;;;;;;;8.73;7.82;;;12.70;99.90;;;;;;5054587;28;20177;-75
2021/09/13 02:29:34;;;;;;;8.82;8.02;;;12.60;99.90;;;;;;5065333;28;20260;-76
2021/09/13 02:32:01;;;;;;;8.43;7.63;;;12.50;99.90;;;;;;5064829;28;20276;-77
2021/09/13 02:34:27;;;;;;;8.63;7.90;;;12.50;99.90;;;;;;5065609;28;20217;-75
2021/09/13 02:36:52;;;;;;;8.32;7.60;;;12.50;99.90;;;;;;5070302;28;20215;-77
2021/09/13 02:39:18;;;;;;;8.73;7.75;;;12.60;99.90;;;;;;5058631;28;20594;-77
2021/09/13 02:41:43;;;;;;;8.63;7.82;;;12.50;99.90;;;;;;5064408;28;20251;-78
2021/09/13 02:44:09;;;;;;;8.70;7.88;;;12.60;99.90;;;;;;5065218;28;20260;-75
2021/09/13 02:46:35;;;;;;;8.75;7.65;;;12.70;99.90;;;;;;5055828;28;20661;-77
2021/09/13 02:49:01;;;;;;;7.90;7.10;;;12.60;99.90;;;;;;5065243;28;20185;-77
2021/09/13 02:51:26;;;;;;;8.30;7.40;;;12.40;99.90;;;;;;5064000;28;20205;-75
2021/09/13 02:53:52;;;;;;;8.32;7.53;;;12.30;99.90;;;;;;5058490;28;20285;-77
2021/09/13 02:56:18;;;;;;;8.95;8.00;;;12.30;99.90;;;;;;5072234;28;20190;-75
2021/09/13 02:58:43;;;;;;;8.93;8.13;;;12.30;99.90;;;;;;5064828;28;20300;-76
2021/09/13 03:01:10;;;;;;;7.65;6.93;;;12.20;99.90;;;;;;5060267;28;20293;-75
2021/09/13 03:03:35;;;;;;;8.48;7.72;;;12.10;99.90;;;;;;5053992;28;20201;-76
2021/09/13 03:06:01;;;;;;;8.05;7.35;;;12.10;99.90;;;;;;5064256;28;20182;-76
2021/09/13 03:08:26;;;;;;;8.82;7.93;;;12.20;99.90;;;;;;5065415;28;20276;-75
2021/09/13 03:10:52;;;;;;;8.00;7.20;;;12.20;99.90;;;;;;5064649;28;20569;-76
2021/09/13 03:13:18;;;;;;;9.18;8.00;;;12.30;99.90;;;;;;5062203;28;20189;-76
2021/09/13 03:15:44;;;;;;;8.32;7.50;;;12.30;99.90;;;;;;5064552;28;20173;-76
2021/09/13 03:18:10;;;;;;;8.13;7.32;;;12.40;99.90;;;;;;5063772;28;20946;-77
2021/09/13 03:20:36;;;;;;;8.60;7.72;;;12.40;99.90;;;;;;5051699;28;20274;-75
2021/09/13 03:23:02;;;;;;;8.20;7.40;;;12.50;99.90;;;;;;5063902;28;20250;-77
2021/09/13 03:25:27;;;;;;;8.40;7.60;;;12.60;99.90;;;;;;5061277;28;20185;-76
2021/09/13 03:27:53;;;;;;;8.30;7.38;;;12.70;99.90;;;;;;5063559;28;20601;-77
2021/09/13 03:30:19;;;;;;;8.63;7.72;;;12.80;99.90;;;;;;5060330;28;20211;-76
2021/09/13 03:32:45;;;;;;;10.60;8.57;;;12.90;99.90;;;;;;5063877;28;20295;-76
2021/09/13 03:35:11;;;;;;;9.10;8.13;;;12.90;99.90;;;;;;5064492;28;20201;-75
2021/09/13 03:37:37;;;;;;;9.07;8.23;;;12.90;99.90;;;;;;5064582;28;20208;-77
2021/09/13 03:40:04;;;;;;;9.13;8.23;;;12.90;99.90;;;;;;5064963;28;20248;-78
2021/09/13 03:42:29;;;;;;;8.57;7.72;;;12.90;99.90;;;;;;5063408;28;20184;-75
2021/09/13 03:44:55;;;;;;;8.55;7.75;;;13.00;99.90;;;;;;5064487;28;20178;-76
2021/09/13 03:47:21;;;;;;;7.95;7.07;;;13.00;99.90;;;;;;5064876;28;21011;-77
2021/09/13 03:49:46;;;;;;;8.70;7.80;;;13.00;99.90;;;;;;5063964;28;20204;-75
2021/09/13 03:52:12;;;;;;;8.68;7.88;;;13.00;99.90;;;;;;5063469;28;20270;-75
2021/09/13 03:54:38;;;;;;;9.25;8.35;;;13.00;99.90;;;;;;5064139;28;20259;-76
2021/09/13 03:57:05;;;;;;;9.05;8.13;;;13.00;99.90;;;;;;5067355;28;20553;-77
2021/09/13 03:59:31;;;;;;;8.77;7.88;;;13.00;99.90;;;;;;5063943;28;20212;-78
2021/09/13 04:01:58;;;;;;;10.43;9.13;;;12.90;99.90;;;;;;5054949;28;20240;-75
2021/09/13 04:04:26;;;;;;;8.85;7.95;;;12.90;99.90;;;;;;5063990;28;20227;-77
2021/09/13 04:09:51;;;;;;;8.63;7.82;;;12.80;99.90;;;;;;5064259;28;20192;-78
2021/09/13 04:12:17;;;;;;;8.70;7.90;;;12.80;99.90;;;;;;5063527;28;20217;-76
2021/09/13 04:14:42;;;;;;;8.60;7.70;;;12.90;99.90;;;;;;5063625;28;20218;-76
2021/09/13 04:17:08;;;;;;;8.65;7.85;;;13.00;99.90;;;;;;5051991;28;20185;-76
2021/09/13 04:19:34;;;;;;;8.05;7.35;;;12.90;99.90;;;;;;5063708;28;20342;-78
2021/09/13 04:21:59;;;;;;;10.32;7.88;;;12.90;99.90;;;;;;5063372;28;20189;-76
2021/09/13 04:24:25;;;;;;;9.25;8.20;;;13.00;99.90;;;;;;5066584;28;20185;-75
2021/09/13 04:26:51;;;;;;;9.80;8.90;;;13.00;99.90;;;;;;5068000;28;20625;-75
2021/09/13 04:29:16;;;;;;;9.18;8.38;;;12.90;99.90;;;;;;5075384;28;20200;-77
2021/09/13 04:31:42;;;;;;;10.05;8.98;;;12.80;99.90;;;;;;5066968;28;20290;-77
2021/09/13 04:34:08;;;;;;;8.90;8.00;;;12.70;99.90;;;;;;5068039;28;20517;-75
2021/09/13 04:36:34;;;;;;;9.82;8.90;;;12.60;99.90;;;;;;5067470;28;20193;-75
2021/09/13 04:39:00;;;;;;;9.80;8.90;;;12.70;99.90;;;;;;5067510;28;20648;-75
2021/09/13 04:41:25;;;;;;;10.27;9.27;;;12.70;99.90;;;;;;5066504;28;20204;-77
2021/09/13 04:43:51;;;;;;;11.63;9.52;;;12.70;99.90;;;;;;5056952;28;20239;-77
2021/09/13 04:46:16;;;;;;;10.05;9.10;;;12.70;99.90;;;;;;5067308;28;20635;-79
2021/09/13 04:48:42;;;;;;;9.18;8.32;;;12.60;99.90;;;;;;5067855;28;20189;-75
2021/09/13 04:51:08;;;;;;;9.20;8.27;;;12.50;99.90;;;;;;5066233;28;20205;-78
2021/09/13 04:53:33;;;;;;;10.23;9.23;;;12.50;99.90;;;;;;5067379;28;20264;-78
2021/09/13 04:55:59;;;;;;;11.25;10.15;;;12.40;99.90;;;;;;5067257;28;20858;-75
2021/09/13 04:58:24;;;;;;;12.68;9.63;;;12.40;99.90;;;;;;5066921;28;20189;-78
2021/09/13 05:00:50;;;;;;;10.55;9.55;;;12.50;99.90;;;;;;5066237;28;20280;-78
2021/09/13 05:03:16;;;;;;;10.68;9.63;;;12.40;99.90;;;;;;5066848;28;20201;-77
2021/09/13 05:05:41;;;;;;;9.52;8.57;;;12.30;99.90;;;;;;5067155;28;20182;-77
2021/09/13 05:08:07;;;;;;;10.75;9.43;;;12.30;99.90;;;;;;5066726;28;20799;-77
2021/09/13 05:10:33;;;;;;;9.60;8.63;;;12.30;99.90;;;;;;5067158;28;20209;-75
2021/09/13 05:12:58;;;;;;;14.48;9.30;;;12.30;99.90;;;;;;5066513;28;20555;-76
2021/09/13 05:15:24;;;;;;;10.80;9.75;;;12.30;99.90;;;;;;5067043;28;20246;-75
2021/09/13 05:17:50;;;;;;;10.65;9.55;;;12.50;99.90;;;;;;5066763;28;20200;-77
2021/09/13 05:20:15;;;;;;;10.05;9.05;;;12.50;99.90;;;;;;5066403;28;20318;-78
2021/09/13 05:22:42;;;;;;;10.98;9.80;;;12.60;99.90;;;;;;5073620;28;20805;-77
2021/09/13 05:25:08;;;;;;;10.15;9.07;;;12.60;99.90;;;;;;5066873;28;20178;-76
2021/09/13 05:27:34;;;;;;;10.77;9.68;;;12.60;99.90;;;;;;5066697;28;20660;-75
2021/09/13 05:29:59;;;;;;;9.90;8.70;;;12.60;99.90;;;;;;5066362;28;20212;-76
2021/09/13 05:32:25;;;;;;;9.57;8.68;;;12.60;99.90;;;;;;5066011;28;20592;-77
2021/09/13 05:34:51;;;;;;;11.60;10.25;;;12.70;99.90;;;;;;5065826;28;20190;-75
2021/09/13 05:37:17;;;;;;;10.68;9.57;;;12.80;99.90;;;;;;5066851;28;20779;-78
2021/09/13 05:39:42;;;;;;;12.23;10.00;;;12.80;99.90;;;;;;5066217;28;20189;-75
2021/09/13 05:42:08;;;;;;;10.13;9.20;;;12.80;99.90;;;;;;5065638;28;20322;-77
2021/09/13 05:44:34;;;;;;;10.93;9.82;;;13.00;99.90;;;;;;5066439;28;20250;-77
2021/09/13 05:46:59;;;;;;;10.85;9.43;;;13.00;99.90;;;;;;5066463;28;20181;-77
2021/09/13 05:49:25;;;;;;;12.57;9.77;;;13.10;99.90;;;;;;5071796;28;20651;-75
2021/09/13 05:51:52;;;;;;;11.60;9.05;;;13.10;99.90;;;;;;5058202;28;20215;-78
2021/09/13 05:54:22;;;;;;;10.73;9.63;;;13.20;99.90;;;;;;5057836;28;20186;-78
2021/09/13 05:56:50;;;;;;;10.65;9.25;;;13.30;99.90;;;;;;5066103;28;20626;-77
2021/09/13 05:59:20;;;;;;;11.13;8.75;;;13.30;99.90;;;;;;5065425;28;20208;-76
2021/09/13 06:01:46;;;;;;;9.95;8.95;;;13.40;99.90;;;;;;5065366;28;20213;-76
2021/09/13 06:04:12;;;;;;;9.82;8.43;;;13.40;99.90;;;;;;5057579;28;20759;-78
2021/09/13 06:06:38;;;;;;;11.27;9.63;;;13.50;99.90;;;;;;5058991;28;20799;-78
2021/09/13 06:09:05;;;;;;;9.73;8.77;;;13.50;99.90;;;;;;5065881;28;20657;-79
2021/09/13 06:11:30;;;;;;;9.80;8.40;;;13.60;99.90;;;;;;5065098;28;20201;-77
2021/09/13 06:13:56;;;;;;;10.27;8.63;;;13.60;99.90;;;;;;5065961;28;20185;-78
2021/09/13 06:16:22;;;;;;;10.75;9.07;;;13.70;99.90;;;;;;5066062;28;20185;-75
2021/09/13 06:18:48;;;;;;;9.50;8.60;;;13.80;99.90;;;;;;5065895;28;20239;-76
2021/09/13 06:21:14;;;;;;;9.07;8.07;;;13.90;99.90;;;;;;5066262;28;20582;-76
2021/09/13 06:23:39;;;;;;;8.90;8.00;;;13.90;99.90;;;;;;5066251;28;20182;-76
2021/09/13 06:26:05;;;;;;;11.45;9.30;;;14.00;99.90;;;;;;5065808;28;21021;-75
2021/09/13 06:28:31;;;;;;;9.20;8.30;;;14.10;99.90;;;;;;5066062;28;20193;-74
2021/09/13 06:30:56;;;;;;;10.15;8.43;;;14.20;99.90;;;;;;5064850;28;20201;-77
2021/09/13 06:33:22;;;;;;;9.40;8.50;;;14.30;99.90;;;;;;5065802;28;20612;-77
2021/09/13 06:35:48;;;;;;;10.23;7.65;;;14.50;99.90;;;;;;5065756;28;20633;-77
2021/09/13 06:38:14;;;;;;;9.50;8.50;;;14.70;99.90;;;;;;5065006;28;20196;-77
2021/09/13 06:40:40;;;;;;;9.65;8.65;;;14.90;99.90;;;;;;5063295;28;20205;-78
2021/09/13 06:43:07;;;;;;;8.95;7.43;;;15.10;99.90;;;;;;5064525;28;20189;-76
2021/09/13 06:45:41;;;;;;;9.50;8.55;;;15.10;99.90;;;;;;5063960;28;20677;-76
2021/09/13 06:48:09;;;;;;;10.32;7.68;;;15.20;99.90;;;;;;5064050;28;20833;-76
2021/09/13 06:50:35;;;;;;;13.65;7.32;;;15.30;99.90;;;;;;5063650;28;20303;-78
2021/09/13 06:53:00;;;;;;;11.60;8.25;;;15.30;99.90;;;;;;5064339;28;20560;-76
2021/09/13 06:55:26;;;;;;;9.20;7.57;;;15.30;99.90;;;;;;5065312;28;20200;-77
2021/09/13 06:57:52;;;;;;;11.10;8.40;;;15.30;99.90;;;;;;5065472;28;20190;-77
2021/09/13 07:00:19;;;;;;;10.90;7.85;;;15.40;99.90;;;;;;5064677;28;20217;-78
2021/09/13 07:02:46;;;;;;;10.48;8.32;;;15.40;99.90;;;;;;5070319;28;20193;-77
2021/09/13 07:05:12;;;;;;;10.57;8.23;;;15.50;99.90;;;;;;5068853;28;20189;-78
2021/09/13 07:07:39;;;;;;;9.77;8.38;;;15.60;99.90;;;;;;5064758;28;20187;-79
2021/09/13 07:10:07;;;;;;;9.07;7.15;;;15.70;99.90;;;;;;5065018;28;20189;-78
2021/09/13 07:12:34;;;;;;;10.15;7.20;;;15.80;99.90;;;;;;5053475;28;20189;-76
2021/09/13 07:14:59;;;;;;;9.68;8.23;;;15.90;99.90;;;;;;5064588;28;20185;-76
2021/09/13 07:17:25;;;;;;;10.02;7.47;;;15.90;99.90;;;;;;5064810;28;20185;-78
2021/09/13 07:19:52;;;;;;;7.95;7.15;;;15.90;99.90;;;;;;5064085;28;20228;-77
2021/09/13 07:22:18;;;;;;;6.88;5.00;;;15.90;99.90;;;;;;5067698;28;20185;-76
2021/09/13 07:24:44;;;;;;;8.02;4.78;;;16.00;99.90;;;;;;5065333;28;20173;-76
2021/09/13 07:27:11;;;;;;;5.72;4.45;;;16.10;99.90;;;;;;5074233;28;20192;-76
2021/09/13 07:29:37;;;;;;;8.43;4.47;;;16.20;99.90;;;;;;5065639;28;20184;-76
2021/09/13 07:32:03;;;;;;;7.47;4.00;;;16.20;99.90;;;;;;5063723;28;20209;-77
2021/09/13 07:34:29;;;;;;;6.80;3.50;;;16.40;99.90;;;;;;5065046;28;20200;-78
2021/09/13 07:36:55;;;;;;;7.55;3.28;;;16.40;99.90;;;;;;5064998;28;20181;-77
2021/09/13 07:39:25;;;;;;;4.05;3.05;;;16.50;99.90;;;;;;5065192;28;20375;-79
2021/09/13 07:41:51;;;;;;;4.10;2.70;;;16.50;99.90;;;;;;5064587;28;21243;-77
2021/09/13 07:44:17;;;;;;;3.58;2.67;;;16.60;99.90;;;;;;5072155;28;20189;-75
2021/09/13 07:46:43;;;;;;;4.07;2.80;;;16.80;99.90;;;;;;5065104;28;20208;-78
2021/09/13 07:49:09;;;;;;;4.93;2.58;;;16.90;99.90;;;;;;5065022;28;20185;-76
2021/09/13 07:51:35;;;;;;;6.15;3.63;;;17.00;99.90;;;;;;5064272;28;20257;-76
2021/09/13 07:54:01;;;;;;;5.28;4.43;;;17.10;99.90;;;;;;5065063;28;20185;-75
2021/09/13 07:56:27;;;;;;;7.10;4.38;;;17.40;99.90;;;;;;5065085;28;20185;-79
2021/09/13 07:58:54;;;;;;;5.60;3.83;;;18.00;99.90;;;;;;5073447;28;20213;-77
2021/09/13 08:01:19;;;;;;;6.32;4.45;;;18.40;99.90;;;;;;5064313;28;20192;-78
2021/09/13 08:03:45;;;;;;;5.03;4.22;;;18.60;99.90;;;;;;5054586;28;20682;-79
2021/09/13 08:06:10;;;;;;;8.63;3.92;;;18.80;99.90;;;;;;5057110;28;20177;-77
2021/09/13 08:08:36;;;;;;;6.18;3.60;;;18.90;99.90;;;;;;5065189;28;20181;-78
2021/09/13 08:11:03;;;;;;;5.10;3.30;;;18.80;99.90;;;;;;5064711;28;20669;-79
2021/09/13 08:13:29;;;;;;;5.55;3.60;;;18.70;99.90;;;;;;5064788;28;20188;-78
2021/09/13 08:15:54;;;;;;;4.32;3.40;;;18.60;99.90;;;;;;5065008;28;20368;-76
2021/09/13 08:18:20;;;;;;;5.50;2.92;;;18.50;99.90;;;;;;5064784;28;20262;-76
2021/09/13 08:20:46;;;;;;;5.15;3.10;;;18.40;99.90;;;;;;5054443;28;20220;-78
2021/09/13 08:23:12;;;;;;;3.05;2.70;;;18.30;99.90;;;;;;5054878;28;20177;-78
2021/09/13 08:25:37;;;;;;;5.35;2.95;;;18.30;99.90;;;;;;5069868;28;20310;-76
2021/09/13 08:28:03;;;;;;;3.47;2.60;;;18.20;99.90;;;;;;5053638;28;20170;-76
2021/09/13 08:30:29;;;;;;;5.20;2.95;;;18.50;99.90;;;;;;5072990;28;20567;-78
2021/09/13 08:32:55;;;;;;;3.08;2.45;;;18.80;99.90;;;;;;5064747;28;20185;-77
2021/09/13 08:35:21;;;;;;;4.40;2.80;;;19.00;99.90;;;;;;5065101;28;20212;-78
2021/09/13 08:37:46;;;;;;;4.15;3.47;;;19.10;99.90;;;;;;5054491;28;20182;-77
2021/09/13 08:40:13;;;;;;;5.00;4.07;;;19.00;99.90;;;;;;5072058;28;20228;-76
2021/09/13 08:42:50;;;;;;;3.60;3.30;;;18.80;99.90;;;;;;5064195;28;20303;-77
2021/09/13 08:45:25;;;;;;;4.18;3.22;;;18.60;99.90;;;;;;5064917;28;20173;-77
2021/09/13 08:53:12;;;;;;;3.70;3.22;;;18.60;99.90;;;;;;5023081;28;20186;-77
2021/09/13 08:55:38;;;;;;;4.07;3.15;;;18.60;99.90;;;;;;5064452;28;20178;-77
2021/09/13 08:58:03;;;;;;;3.50;3.20;;;18.80;99.90;;;;;;5052992;28;20174;-75
2021/09/13 09:00:30;;;;;;;4.55;2.92;;;19.00;99.90;;;;;;5063503;28;20267;-78
2021/09/13 09:02:57;;;;;;;3.15;2.95;;;19.20;99.90;;;;;;5063862;28;20189;-76
2021/09/13 09:05:23;;;;;;;2.83;2.63;;;19.40;99.90;;;;;;5062396;28;20247;-75
2021/09/13 09:07:53;;;;;;;3.10;2.80;;;19.70;99.90;;;;;;5062776;28;20570;-75
2021/09/13 09:10:25;;;;;;;2.85;2.55;;;19.80;99.90;;;;;;5064899;28;20235;-79
2021/09/13 09:12:57;;;;;;;3.45;2.85;;;19.80;99.90;;;;;;5067111;28;20199;-78
2021/09/13 09:15:23;;;;;;;3.30;2.30;;;19.90;99.90;;;;;;5068261;28;20181;-76
2021/09/13 09:17:54;;;;;;;4.97;2.65;;;20.20;99.90;;;;;;5067840;28;20636;-79
2021/09/13 09:20:20;;;;;;;2.55;2.35;;;20.20;99.90;;;;;;5066266;28;20241;-77
2021/09/13 09:22:46;;;;;;;5.13;2.45;;;20.40;99.90;;;;;;5067019;28;20178;-77
2021/09/13 09:25:30;;;;;;;1.77;1.63;;;20.60;99.90;;;;;;5065996;28;20177;-77
2021/09/13 09:27:59;;;;;;;3.00;2.03;;;20.90;99.90;;;;;;5067382;28;20181;-76
2021/09/13 09:30:39;;;;;;;2.65;1.83;;;20.90;99.90;;;;;;5067034;28;20275;-76
2021/09/13 09:33:14;;;;;;;1.75;1.65;;;21.00;99.90;;;;;;5067293;28;20207;-76
2021/09/13 09:35:45;;;;;;;3.38;1.95;;;21.10;99.90;;;;;;5058379;28;20177;-77
2021/09/13 09:38:35;;;;;;;3.17;1.48;;;20.90;99.90;;;;;;5067525;28;20182;-77
2021/09/13 09:41:06;;;;;;;3.05;1.77;;;21.10;99.90;;;;;;5066097;28;20202;-77
2021/09/13 09:43:57;;;;;;;2.30;2.05;;;21.00;99.90;;;;;;5067423;28;20252;-79
2021/09/13 09:46:24;;;;;;;1.90;1.80;;;20.90;99.90;;;;;;5067356;28;21046;-77
2021/09/13 09:49:01;;;;;;;2.45;1.80;;;20.90;99.90;;;;;;5067542;28;20189;-76
2021/09/13 09:58:13;;;;;;;2.05;1.65;;;20.80;99.90;;;;;;5069687;28;20293;-78
2021/09/13 10:00:39;;;;;;;3.25;1.83;;;20.80;99.90;;;;;;5066440;28;20263;-76
2021/09/13 10:03:06;;;;;;;1.95;1.25;;;20.80;99.90;;;;;;5066665;28;20193;-76
2021/09/13 10:05:33;;;;;;;2.17;1.08;;;20.70;99.90;;;;;;5067385;28;20185;-76
2021/09/13 10:07:59;;;;;;;3.30;1.58;;;20.80;99.90;;;;;;5066930;28;20174;-76
2021/09/13 10:10:29;;;;;;;2.20;1.80;;;20.50;99.90;;;;;;5066380;28;20296;-75
2021/09/13 10:12:56;;;;;;;4.72;2.85;;;20.40;99.90;;;;;;5065008;28;20663;-76
2021/09/13 10:15:22;;;;;;;4.85;3.17;;;20.20;99.90;;;;;;5066567;28;20185;-79
2021/09/13 10:17:49;;;;;;;3.10;2.78;;;20.20;99.90;;;;;;5058346;28;20300;-76
2021/09/13 10:20:15;;;;;;;3.55;3.00;;;20.20;99.90;;;;;;5073015;28;20221;-77
2021/09/13 10:22:45;;;;;;;3.00;2.70;;;19.90;99.90;;;;;;5065206;28;20170;-78
2021/09/13 10:25:12;;;;;;;4.22;3.20;;;19.90;99.90;;;;;;5066894;28;20242;-77
2021/09/13 10:27:40;;;;;;;2.47;2.25;;;19.80;99.90;;;;;;5066706;28;20266;-79
2021/09/13 10:30:25;;;;;;;2.53;2.22;;;19.80;99.90;;;;;;5066474;28;20653;-78
2021/09/13 10:33:11;;;;;;;2.65;2.22;;;19.90;99.90;;;;;;5066199;28;20192;-75
2021/09/13 10:36:05;;;;;;;2.10;1.90;;;19.90;99.90;;;;;;5066384;28;20181;-77
2021/09/13 10:38:45;;;;;;;2.25;1.80;;;20.00;99.90;;;;;;5062393;28;20189;-78
2021/09/13 10:41:31;;;;;;;1.80;1.70;;;20.30;99.90;;;;;;5065471;28;20232;-78
2021/09/13 10:44:06;;;;;;;2.30;2.10;;;20.50;99.90;;;;;;5065719;28;20181;-77
2021/09/13 10:47:01;;;;;;;2.17;1.85;;;20.90;99.90;;;;;;5057008;28;20221;-77
2021/09/13 10:49:26;;;;;;;3.88;2.00;;;20.90;99.90;;;;;;5066069;28;20204;-79
2021/09/13 10:52:27;;;;;;;2.60;1.90;;;21.00;99.90;;;;;;5065443;28;20577;-79
2021/09/13 10:55:07;;;;;;;2.85;2.00;;;21.20;99.90;;;;;;5047603;28;20331;-80
2021/09/13 10:58:03;;;;;;;2.08;1.88;;;21.20;99.90;;;;;;5066184;28;20636;-79
2021/09/13 11:00:43;;;;;;;2.75;1.98;;;21.30;99.90;;;;;;5065893;28;20213;-79
2021/09/13 11:03:33;;;;;;;3.58;1.88;;;21.30;99.90;;;;;;5066099;28;20290;-78
2021/09/13 11:06:11;;;;;;;3.22;1.80;;;21.10;99.90;;;;;;5065913;28;20178;-78
2021/09/13 11:08:41;;;;;;;3.05;2.00;;;21.10;99.90;;;;;;5054120;28;20197;-78
2021/09/13 11:11:26;;;;;;;2.50;1.75;;;20.80;99.90;;;;;;5064507;28;20243;-78
2021/09/13 11:14:04;;;;;;;2.20;2.00;;;20.70;99.90;;;;;;5065651;28;20184;-78
2021/09/13 11:16:31;;;;;;;2.88;2.50;;;20.40;99.90;;;;;;5065814;28;20174;-77
2021/09/13 11:18:58;;;;;;;3.10;2.47;;;20.40;99.90;;;;;;5066175;28;20180;-81
2021/09/13 11:21:30;;;;;;;4.22;2.83;;;20.50;99.90;;;;;;5064987;28;20205;-78
2021/09/13 11:24:02;;;;;;;5.05;3.28;;;20.70;99.90;;;;;;5065783;28;20231;-79
2021/09/13 11:26:44;;;;;;;3.20;2.80;;;20.70;99.90;;;;;;5065973;28;20173;-80
2021/09/13 11:29:13;;;;;;;5.22;2.67;;;20.80;99.90;;;;;;5065351;28;20247;-77
2021/09/13 11:31:44;;;;;;;3.28;2.90;;;21.10;99.90;;;;;;5065287;28;20236;-78
2021/09/13 11:34:15;;;;;;;3.75;2.63;;;21.20;99.90;;;;;;5065491;28;20217;-81
2021/09/13 11:37:01;;;;;;;3.13;2.40;;;21.40;99.90;;;;;;5065682;28;20177;-80
2021/09/13 11:39:43;;;;;;;3.38;3.08;;;21.40;99.90;;;;;;5073099;28;20198;-79
2021/09/13 11:42:18;;;;;;;3.42;3.08;;;21.10;99.90;;;;;;5065086;28;20208;-78
2021/09/13 11:44:50;;;;;;;3.20;2.83;;;21.40;99.90;;;;;;5065755;28;20234;-77
2021/09/13 11:47:21;;;;;;;4.13;2.95;;;21.50;99.90;;;;;;5065776;28;20174;-77
2021/09/13 11:49:51;;;;;;;5.07;2.90;;;21.40;99.90;;;;;;5065211;28;20189;-77
2021/09/13 11:52:16;;;;;;;3.03;2.72;;;21.30;99.90;;;;;;5064283;28;20170;-76
2021/09/13 11:54:46;;;;;;;3.25;2.72;;;21.20;99.90;;;;;;5056034;28;20258;-78
2021/09/13 11:57:41;;;;;;;4.32;2.67;;;20.80;99.90;;;;;;5064945;28;20178;-79
2021/09/13 12:00:16;;;;;;;1.70;1.60;;;20.60;99.90;;;;;;5064463;28;20232;-76
2021/09/13 12:02:43;;;;;;;3.17;1.90;;;20.40;99.90;;;;;;5063613;28;20189;-77
2021/09/13 12:05:18;;;;;;;2.25;1.80;;;20.40;99.90;;;;;;5064158;28;20173;-78
2021/09/13 12:07:45;;;;;;;2.20;1.75;;;20.50;99.90;;;;;;5064446;28;20196;-77
2021/09/13 12:10:17;;;;;;;3.15;1.98;;;20.60;99.90;;;;;;5069230;28;20205;-79
2021/09/13 12:12:46;;;;;;;4.60;1.90;;;20.40;99.90;;;;;;5061381;28;20192;-78
2021/09/13 12:15:15;;;;;;;5.03;1.90;;;20.30;99.90;;;;;;5070544;28;20276;-78
2021/09/13 12:17:49;;;;;;;2.53;1.70;;;20.30;99.90;;;;;;5063744;28;20192;-77
2021/09/13 12:20:16;;;;;;;3.45;1.90;;;20.40;99.90;;;;;;5064142;28;20300;-79
2021/09/13 12:22:44;;;;;;;3.15;1.90;;;20.50;99.90;;;;;;5062608;28;20180;-77
2021/09/13 12:25:14;;;;;;;2.60;1.70;;;20.60;99.90;;;;;;5064082;28;20189;-79
2021/09/13 12:27:52;;;;;;;2.72;1.63;;;20.40;99.90;;;;;;5063648;28;20257;-79
2021/09/13 12:30:44;;;;;;;3.03;1.60;;;20.30;99.90;;;;;;5063938;28;20254;-78
2021/09/13 12:33:11;;;;;;;2.08;1.60;;;20.30;99.90;;;;;;5063536;28;20196;-77
2021/09/13 12:35:46;;;;;;;2.35;1.92;;;20.50;99.90;;;;;;5067365;28;20660;-78
2021/09/13 12:38:19;;;;;;;2.45;1.80;;;20.50;99.90;;;;;;5068627;28;20525;-76
2021/09/13 12:41:00;;;;;;;2.90;1.55;;;20.70;99.90;;;;;;5056538;28;20217;-79
2021/09/13 12:43:27;;;;;;;2.67;2.20;;;21.00;99.90;;;;;;5066336;28;20183;-77
2021/09/13 12:46:11;;;;;;;2.70;2.03;;;20.90;99.90;;;;;;5069528;28;20181;-81
2021/09/13 12:48:42;;;;;;;2.78;1.67;;;20.60;99.90;;;;;;5069570;28;20606;-80
2021/09/13 12:51:13;;;;;;;2.20;1.77;;;20.50;99.90;;;;;;5074979;28;20235;-81
2021/09/13 12:53:39;;;;;;;2.42;1.80;;;20.30;99.90;;;;;;5069849;28;20215;-81
2021/09/13 12:56:15;;;;;;;2.88;1.80;;;20.20;99.90;;;;;;5069061;28;20217;-78
2021/09/13 12:58:43;;;;;;;5.05;2.58;;;20.00;99.90;;;;;;5068647;28;20189;-79
2021/09/13 13:01:29;;;;;;;3.95;2.10;;;19.80;99.90;;;;;;5072871;28;20209;-80
2021/09/13 13:04:03;;;;;;;3.03;2.03;;;19.90;99.90;;;;;;5068536;28;20193;-78
2021/09/13 13:06:29;;;;;;;3.33;2.17;;;20.10;99.90;;;;;;5067841;28;20175;-76